Time;durP1;ratioP1;P1;durP2;ratioP2;P2;SDS_P1;SDS_P2;PMS_P1;PMS_P2;Temp;Humidity;BMP_temperature;BMP_pressure;BME280_temperature;BME280_humidity;BME280_pressure;Samples;Min_cycle;Max_cycle;Signal;HPM_P1;HPM_P2
2021/06/02 00:00:09;;;;;;;2.72;1.20;;;;;;;12.71;61.38;101485.69;5017579;28;20021;-82
2021/06/02 00:02:39;;;;;;;2.97;1.48;;;;;;;12.80;61.10;101478.44;5045792;28;20026;-83
2021/06/02 00:05:05;;;;;;;4.03;1.58;;;;;;;12.79;60.81;101484.41;5015606;28;20112;-83
2021/06/02 00:07:31;;;;;;;2.72;1.20;;;;;;;12.93;60.56;101481.69;5015381;28;20112;-82
2021/06/02 00:09:57;;;;;;;5.10;1.17;;;;;;;13.11;59.92;101482.63;5039342;28;20156;-83
2021/06/02 00:12:23;;;;;;;7.55;1.23;;;;;;;13.09;60.22;101486.84;5048689;28;20379;-83
2021/06/02 00:14:48;;;;;;;6.65;1.17;;;;;;;12.94;60.68;101483.44;5015533;28;20033;-83
2021/06/02 00:17:16;;;;;;;2.67;1.40;;;;;;;12.80;61.25;101485.31;5032084;28;20035;-83
2021/06/02 00:19:41;;;;;;;3.30;1.13;;;;;;;12.74;61.33;101479.81;5036915;28;20079;-82
2021/06/02 00:22:08;;;;;;;1.67;1.00;;;;;;;12.97;60.98;101488.78;5051673;28;20048;-83
2021/06/02 00:24:34;;;;;;;3.10;1.13;;;;;;;12.47;62.70;101488.75;5051780;28;20035;-83
2021/06/02 00:27:04;;;;;;;4.40;1.50;;;;;;;12.88;61.69;101488.31;5035090;28;20104;-82
2021/06/02 00:29:35;;;;;;;2.15;1.20;;;;;;;13.13;60.97;101486.19;5034464;28;20024;-83
2021/06/02 00:32:03;;;;;;;4.30;1.30;;;;;;;12.80;62.04;101481.03;5051946;28;20025;-82
2021/06/02 00:34:29;;;;;;;3.72;1.30;;;;;;;12.67;62.32;101494.97;5051764;28;20083;-82
2021/06/02 00:36:55;;;;;;;3.80;1.30;;;;;;;13.06;61.32;101483.22;5051571;28;20025;-82
2021/06/02 00:39:21;;;;;;;2.80;1.13;;;;;;;13.03;61.32;101483.94;5049101;28;20474;-83
2021/06/02 00:41:47;;;;;;;2.70;1.27;;;;;;;12.77;62.34;101493.78;5015156;28;20028;-82
2021/06/02 00:44:15;;;;;;;3.53;1.85;;;;;;;13.09;61.15;101484.25;5032812;28;20029;-83
2021/06/02 00:46:41;;;;;;;3.33;1.40;;;;;;;13.23;60.70;101486.66;5015162;28;20387;-82
2021/06/02 00:49:22;;;;;;;3.83;1.30;;;;;;;12.75;62.00;101479.03;5014704;28;20186;-83
2021/06/02 00:51:55;;;;;;;3.97;1.30;;;;;;;12.86;61.94;101491.69;5015821;28;20402;-82
2021/06/02 00:54:22;;;;;;;2.33;1.17;;;;;;;12.71;62.75;101480.53;5015433;28;20064;-83
2021/06/02 00:56:53;;;;;;;3.17;1.40;;;;;;;12.93;62.37;101476.50;5019107;28;20028;-82
2021/06/02 00:59:22;;;;;;;2.35;0.88;;;;;;;12.48;62.59;101467.25;5036476;28;20032;-83
2021/06/02 01:01:49;;;;;;;1.80;1.13;;;;;;;12.37;63.68;101476.13;5055432;28;20029;-83
2021/06/02 01:04:15;;;;;;;3.40;1.30;;;;;;;12.41;62.73;101470.31;5055593;28;20037;-83
2021/06/02 01:06:43;;;;;;;2.33;1.23;;;;;;;12.27;63.39;101478.19;5038611;28;20031;-82
2021/06/02 01:09:09;;;;;;;2.33;1.20;;;;;;;12.43;63.03;101479.03;5055077;28;20463;-83
2021/06/02 01:11:35;;;;;;;7.28;1.33;;;;;;;12.39;63.32;101483.13;5037304;28;20047;-81
2021/06/02 01:14:02;;;;;;;2.95;1.20;;;;;;;11.96;64.50;101481.56;5055520;28;20021;-82
2021/06/02 01:16:30;;;;;;;3.38;1.27;;;;;;;11.99;64.55;101481.75;5037766;28;20029;-82
2021/06/02 01:18:57;;;;;;;2.72;1.40;;;;;;;12.25;63.69;101479.81;5054759;28;20029;-82
2021/06/02 01:21:24;;;;;;;6.85;1.60;;;;;;;12.21;63.63;101472.69;5038311;28;20407;-83
2021/06/02 01:23:56;;;;;;;3.83;1.67;;;;;;;12.10;63.90;101476.34;5038144;28;20372;-82
2021/06/02 01:26:23;;;;;;;2.28;1.17;;;;;;;11.91;64.45;101472.69;5036280;28;20153;-83
2021/06/02 01:28:50;;;;;;;2.38;1.10;;;;;;;11.81;64.77;101480.69;5034967;28;20096;-82
2021/06/02 01:31:39;;;;;;;3.95;1.17;;;;;;;12.15;63.58;101479.19;5018367;28;20028;-82
2021/06/02 01:34:20;;;;;;;;;;;;;;;12.33;62.59;101476.75;5035516;28;20021;-82
2021/06/02 01:37:31;;;;;;;2.83;1.25;;;;;;;11.98;63.49;101474.81;5037148;28;20392;-83
2021/06/02 01:40:20;;;;;;;2.45;1.02;;;;;;;12.44;62.16;101480.81;5048455;28;20056;-83
2021/06/02 01:43:00;;;;;;;3.85;1.20;;;;;;;12.51;61.64;101477.75;5037870;28;20507;-82
2021/06/02 01:45:41;;;;;;;2.67;0.90;;;;;;;12.63;61.31;101484.41;5054665;28;20039;-82
2021/06/02 01:48:43;;;;;;;5.03;1.27;;;;;;;12.55;61.56;101479.72;5039672;28;20037;-81
2021/06/02 01:51:48;;;;;;;2.20;1.10;;;;;;;12.60;61.23;101479.06;5035593;28;20208;-81
2021/06/02 01:55:01;;;;;;;3.13;1.08;;;;;;;12.72;60.42;101482.31;5035729;28;20021;-81
2021/06/02 01:57:48;;;;;;;1.65;0.93;;;;;;;12.68;61.20;101481.25;5035330;28;20037;-81
2021/06/02 02:00:39;;;;;;;3.08;1.35;;;;;;;12.84;60.71;101488.13;5036687;28;20030;-81
2021/06/02 02:03:42;;;;;;;2.15;1.20;;;;;;;12.93;60.11;101487.75;5019459;28;20091;-83
2021/06/02 02:06:44;;;;;;;4.35;1.30;;;;;;;12.54;61.44;101483.09;5043807;28;20068;-81
2021/06/02 02:09:46;;;;;;;1.95;1.08;;;;;;;12.47;61.81;101478.41;5043993;28;20025;-82
2021/06/02 02:12:44;;;;;;;3.05;1.00;;;;;;;12.57;61.04;101492.69;5020607;28;20030;-81
2021/06/02 02:15:28;;;;;;;4.40;1.20;;;;;;;12.33;61.95;101487.09;5043309;28;20532;-81
2021/06/02 02:18:05;;;;;;;2.92;1.10;;;;;;;11.66;64.00;101486.75;5049325;28;20499;-80
2021/06/02 02:20:52;;;;;;;2.50;1.33;;;;;;;12.32;62.38;101490.47;5033624;28;20492;-80
2021/06/02 02:23:24;;;;;;;3.75;1.23;;;;;;;12.25;62.41;101496.97;5017105;28;20036;-81
2021/06/02 02:26:04;;;;;;;2.75;1.23;;;;;;;12.25;62.38;101500.47;5024991;28;20060;-79
2021/06/02 02:28:49;;;;;;;6.30;1.27;;;;;;;12.66;61.54;101498.38;5051741;28;20103;-78
2021/06/02 02:31:31;;;;;;;2.28;1.20;;;;;;;12.54;61.95;101501.19;5054979;28;20025;-82
2021/06/02 02:34:01;;;;;;;3.78;1.10;;;;;;;12.71;61.61;101501.22;5051552;28;20024;-80
2021/06/02 02:36:37;;;;;;;6.88;1.20;;;;;;;12.78;61.38;101508.50;5042869;28;20040;-81
2021/06/02 02:39:05;;;;;;;4.65;1.17;;;;;;;12.78;61.18;101505.03;5042315;28;20013;-79
2021/06/02 02:41:51;;;;;;;4.72;1.67;;;;;;;12.71;61.59;101511.56;5026139;28;20060;-81
2021/06/02 02:44:32;;;;;;;3.50;1.40;;;;;;;12.02;63.68;101506.00;5044017;28;20037;-80
2021/06/02 02:47:26;;;;;;;8.48;1.75;;;;;;;11.78;64.89;101508.91;5053054;28;20455;-80
2021/06/02 02:50:11;;;;;;;3.72;1.73;;;;;;;11.69;65.62;101510.16;5035551;28;20038;-80
2021/06/02 02:53:02;;;;;;;6.72;1.63;;;;;;;12.08;64.36;101511.50;5043925;28;20060;-81
2021/06/02 02:55:33;;;;;;;5.47;1.55;;;;;;;12.30;63.57;101512.75;5040558;28;20060;-81
2021/06/02 02:58:17;;;;;;;5.15;1.42;;;;;;;11.94;64.73;101509.00;5016573;28;20500;-81
2021/06/02 03:00:59;;;;;;;4.60;1.90;;;;;;;12.03;64.70;101512.94;5034554;28;20041;-83
2021/06/02 03:03:31;;;;;;;4.00;1.67;;;;;;;12.06;64.76;101518.28;5017002;28;20026;-81
2021/06/02 03:06:10;;;;;;;4.63;1.65;;;;;;;12.14;64.64;101511.84;5033241;28;20025;-83
2021/06/02 03:08:36;;;;;;;3.60;1.55;;;;;;;11.71;66.51;101514.53;5034298;28;20040;-81
2021/06/02 03:11:09;;;;;;;3.80;1.83;;;;;;;11.70;66.57;101508.50;5034486;28;20509;-83
2021/06/02 03:14:16;;;;;;;4.18;1.63;;;;;;;11.63;66.76;101520.13;5018283;28;20029;-82
2021/06/02 03:16:49;;;;;;;8.07;2.13;;;;;;;11.71;66.39;101509.38;5032548;28;20037;-82
2021/06/02 03:19:18;;;;;;;8.27;1.73;;;;;;;11.74;66.49;101514.69;5032798;28;20029;-81
2021/06/02 03:22:04;;;;;;;5.45;2.22;;;;;;;11.73;66.69;101528.41;5031930;28;20506;-81
2021/06/02 03:24:51;;;;;;;7.32;2.75;;;;;;;11.23;68.60;101525.50;5032472;28;20183;-81
2021/06/02 03:27:24;;;;;;;4.05;1.98;;;;;;;11.28;68.28;101534.41;5033886;28;20474;-82
2021/06/02 03:30:10;;;;;;;6.50;2.03;;;;;;;11.25;68.58;101529.06;5032701;28;20386;-81
2021/06/02 03:33:03;;;;;;;7.68;3.17;;;;;;;11.60;67.33;101526.78;5049269;28;20188;-82
2021/06/02 03:35:47;;;;;;;9.45;2.90;;;;;;;11.59;67.32;101527.59;5037804;28;20033;-81
2021/06/02 03:38:18;;;;;;;6.50;2.00;;;;;;;11.71;67.09;101527.44;5048713;28;20132;-81
2021/06/02 03:40:58;;;;;;;4.28;1.98;;;;;;;12.06;65.85;101523.44;5053771;28;20028;-80
2021/06/02 03:43:43;;;;;;;;;;;;;;;11.88;66.50;101520.69;5048947;28;20025;-80
2021/06/02 03:46:17;;;;;;;3.70;2.28;;;;;;;11.77;66.65;101525.19;5032403;28;19913;-81
2021/06/02 03:49:01;;;;;;;9.52;2.85;;;;;;;11.54;67.69;101529.91;5015635;28;20411;-81
2021/06/02 03:51:35;;;;;;;6.25;2.28;;;;;;;11.79;67.33;101523.59;5032102;28;20482;-80
2021/06/02 03:54:26;;;;;;;5.53;2.30;;;;;;;11.83;67.57;101528.13;5041384;28;20103;-80
2021/06/02 03:57:28;;;;;;;6.68;2.78;;;;;;;11.32;69.59;101530.31;5051987;28;20029;-80
2021/06/02 04:00:05;;;;;;;4.80;2.28;;;;;;;11.25;70.02;101541.94;5051968;28;20017;-79
2021/06/02 04:02:52;;;;;;;7.97;3.15;;;;;;;11.01;71.41;101539.63;5051943;28;20021;-80
2021/06/02 04:05:52;;;;;;;8.95;2.88;;;;;;;10.99;71.87;101551.53;5033839;28;20037;-80
2021/06/02 04:08:52;;;;;;;7.32;3.25;;;;;;;11.04;72.17;101544.97;5053029;28;20060;-80
2021/06/02 04:11:49;;;;;;;8.45;3.13;;;;;;;11.08;72.69;101544.34;5048057;28;20060;-80
2021/06/02 04:14:33;;;;;;;11.23;3.30;;;;;;;11.37;71.63;101549.53;5043271;28;20068;-80
2021/06/02 04:17:00;;;;;;;10.82;3.42;;;;;;;11.09;73.10;101553.88;5031853;28;20566;-80
2021/06/02 04:19:29;;;;;;;11.60;3.47;;;;;;;11.05;73.45;101557.06;5033011;28;20482;-79
2021/06/02 04:22:01;;;;;;;9.25;3.50;;;;;;;10.79;74.98;101553.75;5031576;28;20045;-80
2021/06/02 04:24:28;;;;;;;8.38;4.18;;;;;;;10.87;75.13;101555.91;5048381;28;20039;-81
2021/06/02 04:26:54;;;;;;;8.60;3.83;;;;;;;10.84;74.66;101550.56;5034967;28;20485;-80
2021/06/02 04:29:20;;;;;;;10.07;4.28;;;;;;;11.07;74.41;101550.31;5051207;28;20063;-81
2021/06/02 04:31:57;;;;;;;10.30;4.45;;;;;;;11.50;72.70;101546.00;5028704;28;20022;-81
2021/06/02 04:34:24;;;;;;;8.40;4.00;;;;;;;11.38;73.31;101540.97;5039749;28;20030;-79
2021/06/02 04:36:58;;;;;;;10.40;4.70;;;;;;;11.13;74.35;101549.81;5031963;28;20083;-80
2021/06/02 04:39:25;;;;;;;11.13;4.43;;;;;;;11.01;74.97;101549.94;5039563;28;20025;-79
2021/06/02 04:41:55;;;;;;;12.48;4.90;;;;;;;10.89;76.04;101554.31;5041476;28;20104;-79
2021/06/02 04:44:23;;;;;;;12.93;5.00;;;;;;;10.97;75.65;101547.97;5039636;28;20021;-80
2021/06/02 04:46:49;;;;;;;8.02;4.55;;;;;;;10.90;76.25;101550.97;5028068;28;20029;-79
2021/06/02 04:49:15;;;;;;;10.52;5.28;;;;;;;11.07;75.47;101549.44;5051383;28;20036;-79
2021/06/02 04:52:02;;;;;;;14.23;5.20;;;;;;;11.19;74.65;101554.47;5034549;28;20091;-80
2021/06/02 04:54:47;;;;;;;11.55;5.05;;;;;;;11.05;75.52;101551.91;5052460;28;20020;-79
2021/06/02 04:57:36;;;;;;;11.30;4.22;;;;;;;11.54;73.98;101553.13;5045876;28;20040;-80
2021/06/02 05:00:32;;;;;;;9.38;3.92;;;;;;;11.49;73.90;101557.13;5046002;28;20571;-80
2021/06/02 05:03:28;;;;;;;9.70;4.40;;;;;;;11.51;73.63;101568.44;5053155;28;20040;-79
2021/06/02 05:06:16;;;;;;;15.35;5.10;;;;;;;11.56;73.68;101564.44;5038802;28;20611;-79
2021/06/02 05:08:58;;;;;;;13.82;5.07;;;;;;;11.53;73.50;101561.66;5032280;28;20034;-79
2021/06/02 05:12:01;;;;;;;11.20;4.45;;;;;;;11.54;73.95;101558.28;5044834;28;20590;-80
2021/06/02 05:15:04;;;;;;;9.70;5.10;;;;;;;11.34;74.52;101570.88;5032562;28;20061;-79
2021/06/02 05:17:54;;;;;;;8.75;4.70;;;;;;;11.29;74.53;101567.13;5048548;28;20044;-79
2021/06/02 05:22:05;;;;;;;13.32;4.95;;;;;;;11.26;74.66;101566.94;5038559;28;20052;-79
2021/06/02 05:23:36;;;;;;;7.95;4.10;;;;;;;11.33;73.82;101575.94;5032634;28;20072;-82
2021/06/02 05:26:35;;;;;;;10.07;5.05;;;;;;;11.20;74.41;101571.72;5032534;28;20363;-80
2021/06/02 05:29:31;;;;;;;11.05;4.93;;;;;;;11.34;74.32;101582.88;5050268;28;20044;-79
2021/06/02 05:32:12;;;;;;;13.95;4.57;;;;;;;11.44;73.89;101576.59;5052370;28;20395;-83
2021/06/02 05:35:25;;;;;;;8.60;4.20;;;;;;;11.53;73.48;101577.16;5039762;28;20471;-82
2021/06/02 05:37:54;;;;;;;8.75;3.95;;;;;;;11.66;72.79;101569.34;5023052;28;20026;-79
2021/06/02 05:40:40;;;;;;;6.88;4.20;;;;;;;11.93;72.44;101576.91;5041593;28;20021;-81
2021/06/02 05:43:35;;;;;;;10.80;4.53;;;;;;;11.87;72.08;101573.97;5044528;28;20591;-80
2021/06/02 05:46:31;;;;;;;11.73;3.70;;;;;;;11.89;72.41;101582.72;5035368;28;20037;-81
2021/06/02 05:49:27;;;;;;;8.73;4.18;;;;;;;12.05;71.89;101583.63;5026616;28;20112;-82
2021/06/02 05:52:26;;;;;;;7.75;4.00;;;;;;;12.39;71.07;101580.44;5043796;28;20397;-83
2021/06/02 05:55:10;;;;;;;9.43;3.63;;;;;;;12.42;70.32;101575.44;5043286;28;20091;-79
2021/06/02 05:58:03;;;;;;;9.88;4.55;;;;;;;12.29;70.81;101578.13;5065698;28;20021;-79
2021/06/02 06:00:46;;;;;;;11.73;4.78;;;;;;;12.43;70.66;101561.72;5061019;28;20032;-75
2021/06/02 06:03:36;;;;;;;10.70;3.60;;;;;;;12.49;70.12;101569.81;5073542;28;20033;-74
2021/06/02 06:06:39;;;;;;;8.38;3.65;;;;;;;12.71;69.93;101571.00;5073787;28;20070;-74
2021/06/02 06:09:19;;;;;;;8.15;3.60;;;;;;;13.09;68.56;101567.03;5073216;28;20465;-74
2021/06/02 06:12:12;;;;;;;8.52;3.47;;;;;;;13.04;68.61;101575.34;5073392;28;20071;-74
2021/06/02 06:14:57;;;;;;;12.90;4.97;;;;;;;12.73;69.39;101566.81;5072154;28;20413;-74
2021/06/02 06:17:58;;;;;;;9.07;4.00;;;;;;;13.01;68.72;101573.47;5073305;28;20082;-74
2021/06/02 06:20:45;;;;;;;8.35;3.03;;;;;;;13.23;67.91;101572.03;5050414;28;20112;-79
2021/06/02 06:23:17;;;;;;;10.13;3.13;;;;;;;13.27;67.09;101571.44;5054756;28;20048;-78
2021/06/02 06:25:49;;;;;;;10.77;3.58;;;;;;;12.94;68.08;101571.38;5053798;28;20477;-79
2021/06/02 06:28:24;;;;;;;7.00;4.07;;;;;;;13.30;67.54;101577.63;5054834;28;20040;-79
2021/06/02 06:30:51;;;;;;;7.00;2.92;;;;;;;13.52;67.88;101572.75;5053958;28;20033;-79
2021/06/02 06:33:18;;;;;;;5.85;3.00;;;;;;;13.81;65.70;101581.13;5053660;28;20025;-79
2021/06/02 06:35:45;;;;;;;7.65;2.90;;;;;;;13.62;65.17;101580.19;5036976;28;20041;-79
2021/06/02 06:38:35;;;;;;;6.25;3.03;;;;;;;13.59;66.36;101574.84;5053604;28;20044;-79
2021/06/02 06:41:01;;;;;;;7.93;3.17;;;;;;;13.55;65.63;101573.78;5036659;28;20558;-79
2021/06/02 06:43:27;;;;;;;6.18;3.17;;;;;;;14.05;64.94;101567.63;5053226;28;20090;-79
2021/06/02 06:45:55;;;;;;;8.98;3.10;;;;;;;14.15;63.92;101572.44;5053341;28;20032;-79
2021/06/02 06:48:22;;;;;;;6.93;3.05;;;;;;;14.14;63.47;101571.56;5053588;28;20036;-79
2021/06/02 06:50:53;;;;;;;7.90;3.20;;;;;;;14.27;63.53;101565.25;5036646;28;20458;-79
2021/06/02 06:53:19;;;;;;;11.43;3.72;;;;;;;14.40;63.83;101571.06;5052863;28;20063;-79
2021/06/02 06:55:45;;;;;;;7.15;2.92;;;;;;;14.53;63.16;101569.94;5052969;28;20065;-79
2021/06/02 06:58:11;;;;;;;7.15;3.00;;;;;;;14.45;62.98;101572.19;5052936;28;20080;-79
2021/06/02 07:00:38;;;;;;;5.13;2.75;;;;;;;14.12;63.05;101567.09;5053200;28;20145;-79
2021/06/02 07:03:03;;;;;;;5.35;2.65;;;;;;;14.28;62.79;101564.44;5052924;28;20017;-79
2021/06/02 07:05:30;;;;;;;9.45;3.10;;;;;;;14.65;62.22;101564.47;5052855;28;20074;-79
2021/06/02 07:07:56;;;;;;;6.88;2.70;;;;;;;14.26;62.29;101563.50;5052806;28;20025;-79
2021/06/02 07:10:22;;;;;;;11.88;2.85;;;;;;;14.02;63.46;101569.25;5053322;28;20021;-79
2021/06/02 07:12:49;;;;;;;6.47;2.60;;;;;;;14.53;63.15;101559.56;5054157;28;20025;-79
2021/06/02 07:15:15;;;;;;;4.72;2.67;;;;;;;14.84;61.85;101566.22;5053197;28;20029;-78
2021/06/02 07:17:51;;;;;;;11.10;3.03;;;;;;;15.46;59.79;101564.72;5052532;28;20033;-79
2021/06/02 07:20:22;;;;;;;9.98;3.00;;;;;;;15.48;58.17;101557.00;5036108;28;20056;-79
2021/06/02 07:22:49;;;;;;;11.07;2.55;;;;;;;15.00;60.20;101567.84;5072299;28;20493;-79
2021/06/02 07:25:16;;;;;;;6.35;3.08;;;;;;;15.38;59.84;101560.91;5072593;28;20028;-79
2021/06/02 07:27:44;;;;;;;7.55;2.55;;;;;;;15.53;58.83;101550.28;5072461;28;20037;-78
2021/06/02 07:30:10;;;;;;;4.45;2.15;;;;;;;15.77;58.15;101560.84;5072742;28;20016;-80
2021/06/02 07:32:36;;;;;;;8.20;2.78;;;;;;;15.97;57.51;101553.03;5072510;28;20044;-79
2021/06/02 07:35:01;;;;;;;5.25;2.50;;;;;;;16.01;56.75;101554.94;5072529;28;20132;-79
2021/06/02 07:37:26;;;;;;;9.55;2.47;;;;;;;15.88;56.64;101552.66;5055535;28;20024;-79
2021/06/02 07:39:52;;;;;;;4.70;2.05;;;;;;;15.52;57.75;101550.25;5072324;28;20031;-79
2021/06/02 07:42:18;;;;;;;4.03;2.03;;;;;;;15.16;58.64;101549.53;5071788;28;20032;-78
2021/06/02 07:44:43;;;;;;;3.83;2.25;;;;;;;15.31;59.06;101558.84;5071985;28;20036;-77
2021/06/02 07:47:09;;;;;;;7.80;2.85;;;;;;;15.57;56.50;101546.13;5073307;28;20024;-77
2021/06/02 07:49:34;;;;;;;5.38;2.20;;;;;;;16.10;57.07;101548.34;5071951;28;20055;-77
2021/06/02 07:52:00;;;;;;;4.90;2.08;;;;;;;16.43;56.19;101543.63;5073509;28;20031;-77
2021/06/02 07:54:26;;;;;;;5.40;1.92;;;;;;;15.98;54.90;101548.75;5055534;28;20074;-78
2021/06/02 07:56:53;;;;;;;3.85;1.80;;;;;;;15.73;54.47;101556.34;5055456;28;20030;-81
2021/06/02 07:59:18;;;;;;;3.67;2.22;;;;;;;15.60;56.56;101556.66;5055382;28;20025;-78
2021/06/02 08:01:46;;;;;;;5.13;2.25;;;;;;;16.18;55.17;101546.94;5071655;28;20451;-79
2021/06/02 08:04:12;;;;;;;4.10;1.85;;;;;;;16.72;53.80;101556.00;5054474;28;20024;-80
2021/06/02 08:06:37;;;;;;;5.20;1.73;;;;;;;16.04;53.22;101549.88;5055176;28;20127;-79
2021/06/02 08:09:04;;;;;;;6.28;2.15;;;;;;;16.53;52.66;101550.09;5055052;28;20051;-79
2021/06/02 08:11:29;;;;;;;5.25;1.92;;;;;;;16.36;51.82;101558.09;5055246;28;20025;-78
2021/06/02 08:13:55;;;;;;;7.38;1.60;;;;;;;16.62;51.21;101558.25;5055271;28;20027;-78
2021/06/02 08:16:21;;;;;;;6.57;1.65;;;;;;;16.64;49.61;101569.59;5041016;28;20063;-79
2021/06/02 08:18:47;;;;;;;5.28;1.63;;;;;;;16.47;50.67;101570.66;5044194;28;20107;-77
2021/06/02 08:21:13;;;;;;;5.20;1.60;;;;;;;16.48;50.76;101557.69;5041658;28;20398;-79
2021/06/02 08:23:38;;;;;;;3.53;1.98;;;;;;;16.67;50.29;101557.53;5025257;28;20087;-80
2021/06/02 08:26:05;;;;;;;5.55;1.60;;;;;;;17.29;49.11;101549.44;5026301;28;20573;-79
2021/06/02 08:28:32;;;;;;;8.73;2.45;;;;;;;17.28;48.44;101568.50;5024262;28;20185;-81
2021/06/02 08:30:58;;;;;;;9.88;1.70;;;;;;;17.20;49.17;101545.69;5040973;28;20074;-80
2021/06/02 08:33:24;;;;;;;3.47;1.70;;;;;;;16.70;49.03;101563.72;5042240;28;20021;-81
2021/06/02 08:35:50;;;;;;;8.18;1.88;;;;;;;16.72;49.46;101556.00;5040597;28;20032;-80
2021/06/02 08:38:15;;;;;;;5.90;2.38;;;;;;;16.73;49.52;101549.97;5040805;28;20025;-80
2021/06/02 08:40:42;;;;;;;11.73;1.85;;;;;;;17.44;49.32;101555.19;5027426;28;20029;-80
2021/06/02 08:43:09;;;;;;;12.50;1.77;;;;;;;17.51;48.50;101545.91;5023529;28;20378;-80
2021/06/02 08:45:35;;;;;;;4.70;1.60;;;;;;;18.03;47.14;101561.59;5041204;28;20394;-79
2021/06/02 08:48:02;;;;;;;6.70;1.75;;;;;;;17.71;49.04;101548.31;5041703;28;20021;-80
2021/06/02 08:50:28;;;;;;;6.63;1.55;;;;;;;18.01;47.82;101543.28;5051454;28;20029;-79
2021/06/02 08:52:56;;;;;;;5.10;1.73;;;;;;;18.26;46.17;101549.28;5051365;28;20063;-80
2021/06/02 08:55:22;;;;;;;3.42;1.70;;;;;;;17.40;48.26;101548.09;5034623;28;20027;-80
2021/06/02 08:57:49;;;;;;;4.63;1.60;;;;;;;17.63;48.26;101535.03;5034626;28;20028;-80
2021/06/02 09:00:17;;;;;;;3.05;1.40;;;;;;;18.39;47.68;101541.00;5045439;28;20108;-80
2021/06/02 09:02:45;;;;;;;2.40;1.40;;;;;;;18.38;45.42;101539.25;5026156;28;20434;-80
2021/06/02 09:05:12;;;;;;;6.13;1.35;;;;;;;18.53;45.71;101538.84;5038882;28;20057;-80
2021/06/02 09:07:40;;;;;;;4.28;1.77;;;;;;;18.32;44.79;101535.56;5039935;28;20021;-80
2021/06/02 09:10:08;;;;;;;3.97;2.03;;;;;;;18.11;46.29;101534.06;5041766;28;20052;-80
2021/06/02 09:12:39;;;;;;;5.28;1.95;;;;;;;18.33;45.25;101546.03;5040412;28;20425;-80
2021/06/02 09:15:13;;;;;;;4.78;1.55;;;;;;;17.62;46.63;101543.69;5039526;28;20053;-80
2021/06/02 09:17:59;;;;;;;5.15;1.65;;;;;;;17.72;47.74;101537.94;5043355;28;20028;-81
2021/06/02 09:20:34;;;;;;;5.07;1.80;;;;;;;16.86;48.41;101549.59;5047667;28;20386;-80
2021/06/02 09:23:01;;;;;;;5.35;1.63;;;;;;;17.10;48.09;101543.56;5042717;28;20079;-80
2021/06/02 09:25:27;;;;;;;4.30;1.50;;;;;;;17.08;48.97;101545.22;5030107;28;20095;-80
2021/06/02 09:27:57;;;;;;;4.15;1.63;;;;;;;17.96;47.69;101537.00;5026502;28;20378;-86
2021/06/02 09:30:28;;;;;;;2.72;1.40;;;;;;;17.61;48.24;101542.78;5043331;28;20018;-86
2021/06/02 09:32:56;;;;;;;4.63;1.67;;;;;;;18.58;47.81;101541.59;5045883;28;20023;-84
2021/06/02 09:35:43;;;;;;;5.80;1.50;;;;;;;19.48;44.65;101543.28;5032559;28;20381;-86
2021/06/02 09:38:29;;;;;;;2.50;1.48;;;;;;;20.38;43.73;101541.19;5046660;28;20037;-86
2021/06/02 09:40:56;;;;;;;6.00;1.95;;;;;;;21.45;40.66;101537.31;5048074;28;20097;-85
2021/06/02 09:43:33;;;;;;;5.05;1.83;;;;;;;22.59;37.55;101542.69;5048372;28;20090;-84
2021/06/02 09:46:07;;;;;;;4.03;1.48;;;;;;;22.83;37.94;101543.88;5048955;28;20027;-85
2021/06/02 09:48:39;;;;;;;5.18;1.85;;;;;;;21.04;40.69;101542.63;5041899;28;20028;-82
2021/06/02 09:51:05;;;;;;;9.35;1.75;;;;;;;20.78;41.73;101545.56;5045099;28;20050;-86
2021/06/02 09:53:52;;;;;;;3.42;1.50;;;;;;;18.87;45.72;101536.38;5047107;28;20047;-85
2021/06/02 09:56:43;;;;;;;5.32;2.00;;;;;;;20.16;44.83;101544.16;5025461;28;20483;-85
2021/06/02 09:59:10;;;;;;;4.05;1.75;;;;;;;20.23;43.26;101536.50;5044624;28;20167;-83
2021/06/02 10:01:53;;;;;;;3.38;1.48;;;;;;;19.74;43.88;101528.31;5040725;28;20090;-84
2021/06/02 10:04:27;;;;;;;8.15;1.77;;;;;;;19.49;44.66;101535.47;5045370;28;20025;-85
2021/06/02 10:06:53;;;;;;;6.15;1.67;;;;;;;20.07;42.92;101524.78;5027625;28;20090;-85
2021/06/02 10:09:28;;;;;;;6.43;1.88;;;;;;;18.74;46.81;101529.88;5042125;28;20033;-84
2021/06/02 10:11:59;;;;;;;5.88;1.83;;;;;;;18.48;46.05;101524.78;5042496;28;20482;-86
2021/06/02 10:14:25;;;;;;;8.57;1.85;;;;;;;19.23;46.20;101527.84;5044925;28;20695;-85
2021/06/02 10:16:50;;;;;;;4.75;1.98;;;;;;;20.59;42.16;101529.44;5045007;28;20021;-85
2021/06/02 10:19:34;;;;;;;5.43;1.85;;;;;;;20.38;43.48;101520.25;5050345;28;20367;-85
2021/06/02 10:22:03;;;;;;;7.20;1.75;;;;;;;21.44;40.99;101522.44;5043002;28;20037;-86
2021/06/02 10:24:31;;;;;;;2.47;1.30;;;;;;;22.68;39.12;101513.91;5041673;28;20033;-86
2021/06/02 10:26:58;;;;;;;4.07;1.40;;;;;;;23.61;35.89;101516.72;5025245;28;20038;-87
2021/06/02 10:29:23;;;;;;;8.70;1.77;;;;;;;23.17;37.54;101528.53;5038447;28;20356;-85
2021/06/02 10:31:50;;;;;;;7.30;2.10;;;;;;;22.09;39.15;101525.28;5043097;28;20091;-88
2021/06/02 10:34:16;;;;;;;4.15;1.13;;;;;;;22.78;39.29;101525.44;5043567;28;20017;-85
2021/06/02 10:36:43;;;;;;;3.97;1.77;;;;;;;22.71;38.87;101519.22;5030063;28;20501;-85
2021/06/02 10:39:09;;;;;;;6.68;1.50;;;;;;;23.26;37.59;101525.13;5032198;28;20140;-87
2021/06/02 10:41:49;;;;;;;6.05;1.65;;;;;;;23.64;36.20;101525.50;5028017;28;20534;-88
2021/06/02 10:44:18;;;;;;;3.00;1.58;;;;;;;23.48;37.53;101518.34;5045813;28;20018;-86
2021/06/02 10:46:46;;;;;;;4.68;1.65;;;;;;;22.30;38.27;101522.13;5046276;28;20091;-86
2021/06/02 10:49:12;;;;;;;5.20;1.55;;;;;;;22.03;39.41;101518.22;5046210;28;20083;-87
2021/06/02 10:51:38;;;;;;;2.30;1.55;;;;;;;22.37;37.76;101533.59;5035901;28;20025;-87
2021/06/02 10:54:19;;;;;;;10.20;2.17;;;;;;;20.73;42.30;101507.09;5046318;28;20025;-89
2021/06/02 10:56:57;;;;;;;6.53;2.10;;;;;;;21.56;38.82;101506.94;5047793;28;20029;-87
2021/06/02 10:59:34;;;;;;;3.88;1.50;;;;;;;22.09;40.35;101502.59;5046111;28;20047;-87
2021/06/02 11:02:08;;;;;;;5.57;1.80;;;;;;;22.11;39.13;101500.88;5050359;28;20767;-87
2021/06/02 11:04:37;;;;;;;3.95;1.98;;;;;;;22.57;38.58;101503.28;5024709;28;20168;-85
2021/06/02 11:07:14;;;;;;;3.15;1.63;;;;;;;20.55;42.71;101506.66;5031654;28;20113;-85
2021/06/02 11:09:55;;;;;;;5.00;1.38;;;;;;;20.99;41.94;101503.25;5039604;28;20108;-86
2021/06/02 11:12:24;;;;;;;5.10;1.40;;;;;;;21.43;40.33;101489.22;5024696;28;20028;-86
2021/06/02 11:14:50;;;;;;;3.70;1.75;;;;;;;21.47;41.17;101491.03;5042601;28;20488;-85
2021/06/02 11:17:18;;;;;;;5.32;1.80;;;;;;;21.27;40.26;101496.81;5045520;28;20029;-89
2021/06/02 11:19:49;;;;;;;5.85;1.92;;;;;;;20.34;42.48;101507.97;5042101;28;20021;-85
2021/06/02 11:22:20;;;;;;;6.53;1.45;;;;;;;20.02;41.16;101492.41;5027329;28;20053;-82
2021/06/02 11:24:47;;;;;;;6.43;1.70;;;;;;;20.28;41.56;101502.59;5041654;28;20030;-82
2021/06/02 11:27:13;;;;;;;11.38;1.55;;;;;;;20.15;41.43;101493.59;5040798;28;20025;-83
2021/06/02 11:29:47;;;;;;;4.28;1.83;;;;;;;19.53;43.09;101500.75;5040880;28;20036;-86
2021/06/02 11:32:18;;;;;;;2.42;1.20;;;;;;;19.51;43.12;101502.44;5042462;28;20033;-85
2021/06/02 11:34:46;;;;;;;4.65;1.75;;;;;;;19.95;43.40;101503.56;5039033;28;20022;-87
2021/06/02 11:37:15;;;;;;;4.53;1.70;;;;;;;19.80;41.27;101485.75;5028178;28;20021;-84
2021/06/02 11:39:42;;;;;;;3.70;1.52;;;;;;;19.61;42.52;101497.44;5042426;28;20024;-85
2021/06/02 11:42:25;;;;;;;5.53;1.90;;;;;;;19.85;42.66;101486.72;5027894;28;20033;-86
2021/06/02 11:44:56;;;;;;;6.07;1.60;;;;;;;20.13;43.16;101488.31;5044113;28;20017;-87
2021/06/02 11:47:22;;;;;;;2.30;1.50;;;;;;;19.81;44.40;101491.03;5041532;28;20029;-88
2021/06/02 11:49:49;;;;;;;5.78;1.85;;;;;;;19.92;42.81;101498.28;5016055;28;20025;-86
2021/06/02 11:52:17;;;;;;;5.55;2.03;;;;;;;20.14;42.98;101489.19;5015862;28;20378;-86
2021/06/02 11:54:50;;;;;;;5.20;1.98;;;;;;;20.34;42.21;101491.41;5032431;28;20080;-86
2021/06/02 11:57:26;;;;;;;3.78;2.00;;;;;;;20.73;41.52;101486.16;5033428;28;20060;-78
2021/06/02 11:59:52;;;;;;;4.90;1.73;;;;;;;20.54;41.79;101490.09;5033407;28;20025;-79